Погода в консоли.

Ставим пакет  weather-util

На сайте http://weather.noaa.gov выбираем страну и город и узнаём ID погодной станции.

Например, Шереметьево – UUEE

А теперь сама погода:


weather --id UUEE -v

Получаем вывод:


Moscow / Sheremet'Ye , Russia (UUEE) 55-59N 037-30E
Jan 10, 2010 - 06:30 AM EST / 2010.01.10 1130 UTC
Wind: from the E (080 degrees) at 2 MPH (2 KT):0
Visibility: greater than 7 mile(s):0
Sky conditions: mostly cloudy
Temperature: 6 F (-14 C)
Dew Point: 3 F (-16 C)
Relative Humidity: 84%
Pressure (altimeter): 30.53 in. Hg (1034 hPa)
Pressure tendency: 1.24 inches (42.0 hPa) lower than three hours ago
ob: UUEE 101130Z 08001MPS 9999 FEW005 BKN200 M14/M16 Q1034 NOSIG RMK 07420345 57420345
cycle: 11

Добавить комментарий

Ваш адрес email не будет опубликован. Обязательные поля помечены *